sensor_id;sensor_type;location;lat;lon;timestamp;temperature;humidity
16929;DHT22;8581;47.334;11.190;2024-02-16T00:01:38;1.70;99.90
16929;DHT22;8581;47.334;11.190;2024-02-16T00:04:10;1.70;99.90
16929;DHT22;8581;47.334;11.190;2024-02-16T00:06:41;1.70;99.90
16929;DHT22;8581;47.334;11.190;2024-02-16T00:09:13;1.70;99.90
16929;DHT22;8581;47.334;11.190;2024-02-16T00:11:44;1.70;99.90
16929;DHT22;8581;47.334;11.190;2024-02-16T00:14:16;1.60;99.90
16929;DHT22;8581;47.334;11.190;2024-02-16T00:16:48;1.70;99.90
16929;DHT22;8581;47.334;11.190;2024-02-16T00:19:19;1.70;99.90
16929;DHT22;8581;47.334;11.190;2024-02-16T00:21:51;1.80;99.90
16929;DHT22;8581;47.334;11.190;2024-02-16T00:24:23;1.90;99.90
16929;DHT22;8581;47.334;11.190;2024-02-16T00:26:54;1.80;99.90
16929;DHT22;8581;47.334;11.190;2024-02-16T00:29:26;1.80;99.90
16929;DHT22;8581;47.334;11.190;2024-02-16T00:31:58;1.70;99.90
16929;DHT22;8581;47.334;11.190;2024-02-16T00:34:30;1.70;99.90
16929;DHT22;8581;47.334;11.190;2024-02-16T00:37:02;1.70;99.90
16929;DHT22;8581;47.334;11.190;2024-02-16T00:39:33;1.70;99.90
16929;DHT22;8581;47.334;11.190;2024-02-16T00:42:05;1.80;99.90
16929;DHT22;8581;47.334;11.190;2024-02-16T00:44:37;1.80;99.90
16929;DHT22;8581;47.334;11.190;2024-02-16T00:47:08;1.80;99.90
16929;DHT22;8581;47.334;11.190;2024-02-16T00:49:40;1.70;99.90
16929;DHT22;8581;47.334;11.190;2024-02-16T00:52:12;1.60;99.90
16929;DHT22;8581;47.334;11.190;2024-02-16T00:54:43;1.50;99.90
16929;DHT22;8581;47.334;11.190;2024-02-16T00:57:15;1.50;99.90
16929;DHT22;8581;47.334;11.190;2024-02-16T00:59:46;1.40;99.90
16929;DHT22;8581;47.334;11.190;2024-02-16T01:02:18;1.40;99.90
16929;DHT22;8581;47.334;11.190;2024-02-16T01:04:50;1.40;99.90
16929;DHT22;8581;47.334;11.190;2024-02-16T01:07:21;1.30;99.90
16929;DHT22;8581;47.334;11.190;2024-02-16T01:09:53;1.30;99.90
16929;DHT22;8581;47.334;11.190;2024-02-16T01:12:25;1.20;99.90
16929;DHT22;8581;47.334;11.190;2024-02-16T01:14:56;1.20;99.90
16929;DHT22;8581;47.334;11.190;2024-02-16T01:17:28;1.20;99.90
16929;DHT22;8581;47.334;11.190;2024-02-16T01:19:59;1.10;99.90
16929;DHT22;8581;47.334;11.190;2024-02-16T01:22:31;1.00;99.90
16929;DHT22;8581;47.334;11.190;2024-02-16T01:25:03;1.10;99.90
16929;DHT22;8581;47.334;11.190;2024-02-16T01:27:35;1.10;99.90
16929;DHT22;8581;47.334;11.190;2024-02-16T01:30:08;1.30;99.90
16929;DHT22;8581;47.334;11.190;2024-02-16T01:32:40;1.40;99.90
16929;DHT22;8581;47.334;11.190;2024-02-16T01:35:11;1.40;99.90
16929;DHT22;8581;47.334;11.190;2024-02-16T01:37:43;1.20;99.90
16929;DHT22;8581;47.334;11.190;2024-02-16T01:40:15;1.10;99.90
16929;DHT22;8581;47.334;11.190;2024-02-16T01:42:47;1.20;99.90
16929;DHT22;8581;47.334;11.190;2024-02-16T01:45:19;1.10;99.90
16929;DHT22;8581;47.334;11.190;2024-02-16T01:47:51;1.20;99.90
16929;DHT22;8581;47.334;11.190;2024-02-16T01:50:22;1.10;99.90
16929;DHT22;8581;47.334;11.190;2024-02-16T01:52:54;1.20;99.90
16929;DHT22;8581;47.334;11.190;2024-02-16T01:55:25;1.20;99.90
16929;DHT22;8581;47.334;11.190;2024-02-16T01:57:57;1.30;99.90
16929;DHT22;8581;47.334;11.190;2024-02-16T02:00:29;1.20;99.90
16929;DHT22;8581;47.334;11.190;2024-02-16T02:03:00;1.10;99.90
16929;DHT22;8581;47.334;11.190;2024-02-16T02:05:32;1.20;99.90
16929;DHT22;8581;47.334;11.190;2024-02-16T02:08:10;1.20;99.90
16929;DHT22;8581;47.334;11.190;2024-02-16T02:10:42;1.20;99.90
16929;DHT22;8581;47.334;11.190;2024-02-16T02:13:14;1.20;99.90
16929;DHT22;8581;47.334;11.190;2024-02-16T02:15:45;1.20;99.90
16929;DHT22;8581;47.334;11.190;2024-02-16T02:18:17;1.20;99.90
16929;DHT22;8581;47.334;11.190;2024-02-16T02:20:49;1.20;99.90
16929;DHT22;8581;47.334;11.190;2024-02-16T02:23:20;1.10;99.90
16929;DHT22;8581;47.334;11.190;2024-02-16T02:25:52;1.10;99.90
16929;DHT22;8581;47.334;11.190;2024-02-16T02:28:23;1.10;99.90
16929;DHT22;8581;47.334;11.190;2024-02-16T02:30:55;1.20;99.90
16929;DHT22;8581;47.334;11.190;2024-02-16T02:33:27;1.20;99.90
16929;DHT22;8581;47.334;11.190;2024-02-16T02:35:58;1.20;99.90
16929;DHT22;8581;47.334;11.190;2024-02-16T02:38:30;1.20;99.90
16929;DHT22;8581;47.334;11.190;2024-02-16T02:41:02;1.30;99.90
16929;DHT22;8581;47.334;11.190;2024-02-16T02:43:33;1.40;99.90
16929;DHT22;8581;47.334;11.190;2024-02-16T02:46:05;1.30;99.90
16929;DHT22;8581;47.334;11.190;2024-02-16T02:48:37;1.20;99.90
16929;DHT22;8581;47.334;11.190;2024-02-16T02:51:08;1.20;99.90
16929;DHT22;8581;47.334;11.190;2024-02-16T02:53:40;1.40;99.90
16929;DHT22;8581;47.334;11.190;2024-02-16T02:56:11;1.30;99.90
16929;DHT22;8581;47.334;11.190;2024-02-16T02:58:43;1.30;99.90
16929;DHT22;8581;47.334;11.190;2024-02-16T03:01:15;1.50;99.90
16929;DHT22;8581;47.334;11.190;2024-02-16T03:03:46;1.50;99.90
16929;DHT22;8581;47.334;11.190;2024-02-16T03:06:18;1.50;99.90
16929;DHT22;8581;47.334;11.190;2024-02-16T03:08:50;1.50;99.90
16929;DHT22;8581;47.334;11.190;2024-02-16T03:11:21;1.70;99.90
16929;DHT22;8581;47.334;11.190;2024-02-16T03:13:53;1.70;99.90
16929;DHT22;8581;47.334;11.190;2024-02-16T03:16:24;1.70;99.90
16929;DHT22;8581;47.334;11.190;2024-02-16T03:18:56;1.60;99.90
16929;DHT22;8581;47.334;11.190;2024-02-16T03:21:28;1.70;99.90
16929;DHT22;8581;47.334;11.190;2024-02-16T03:24:00;1.60;99.90
16929;DHT22;8581;47.334;11.190;2024-02-16T03:26:31;1.60;99.90
16929;DHT22;8581;47.334;11.190;2024-02-16T03:29:02;1.70;99.90
16929;DHT22;8581;47.334;11.190;2024-02-16T03:31:34;1.60;99.90
16929;DHT22;8581;47.334;11.190;2024-02-16T03:34:06;1.60;99.90
16929;DHT22;8581;47.334;11.190;2024-02-16T03:36:37;1.60;99.90
16929;DHT22;8581;47.334;11.190;2024-02-16T03:39:09;1.80;99.90
16929;DHT22;8581;47.334;11.190;2024-02-16T03:41:41;1.80;99.90
16929;DHT22;8581;47.334;11.190;2024-02-16T03:44:12;1.80;99.90
16929;DHT22;8581;47.334;11.190;2024-02-16T03:46:44;1.80;99.90
16929;DHT22;8581;47.334;11.190;2024-02-16T03:49:15;1.80;99.90
16929;DHT22;8581;47.334;11.190;2024-02-16T03:51:47;1.80;99.90
16929;DHT22;8581;47.334;11.190;2024-02-16T03:54:19;1.80;99.90
16929;DHT22;8581;47.334;11.190;2024-02-16T03:56:53;1.90;99.90
16929;DHT22;8581;47.334;11.190;2024-02-16T03:59:25;1.90;99.90
16929;DHT22;8581;47.334;11.190;2024-02-16T04:01:56;1.80;99.90
16929;DHT22;8581;47.334;11.190;2024-02-16T04:04:28;1.90;99.90
16929;DHT22;8581;47.334;11.190;2024-02-16T04:07:00;2.00;99.90
16929;DHT22;8581;47.334;11.190;2024-02-16T04:09:31;2.00;99.90
16929;DHT22;8581;47.334;11.190;2024-02-16T04:12:04;1.90;99.90
16929;DHT22;8581;47.334;11.190;2024-02-16T04:14:35;2.00;99.90
16929;DHT22;8581;47.334;11.190;2024-02-16T04:17:07;2.20;99.90
16929;DHT22;8581;47.334;11.190;2024-02-16T04:19:39;2.20;99.90
16929;DHT22;8581;47.334;11.190;2024-02-16T04:22:10;2.10;99.90
16929;DHT22;8581;47.334;11.190;2024-02-16T04:24:42;2.10;99.90
16929;DHT22;8581;47.334;11.190;2024-02-16T04:27:13;2.10;99.90
16929;DHT22;8581;47.334;11.190;2024-02-16T04:29:45;2.00;99.90
16929;DHT22;8581;47.334;11.190;2024-02-16T04:32:17;2.00;99.90
16929;DHT22;8581;47.334;11.190;2024-02-16T04:34:48;2.00;99.90
16929;DHT22;8581;47.334;11.190;2024-02-16T04:37:20;2.00;99.90
16929;DHT22;8581;47.334;11.190;2024-02-16T04:39:52;2.10;99.90
16929;DHT22;8581;47.334;11.190;2024-02-16T04:42:23;2.10;99.90
16929;DHT22;8581;47.334;11.190;2024-02-16T04:44:55;2.10;99.90
16929;DHT22;8581;47.334;11.190;2024-02-16T04:47:26;2.10;99.90
16929;DHT22;8581;47.334;11.190;2024-02-16T04:49:58;2.00;99.90
16929;DHT22;8581;47.334;11.190;2024-02-16T04:52:30;2.00;99.90
16929;DHT22;8581;47.334;11.190;2024-02-16T04:55:01;1.90;99.90
16929;DHT22;8581;47.334;11.190;2024-02-16T04:57:33;1.90;99.90
16929;DHT22;8581;47.334;11.190;2024-02-16T05:00:05;1.90;99.90
16929;DHT22;8581;47.334;11.190;2024-02-16T05:02:37;2.10;99.90
16929;DHT22;8581;47.334;11.190;2024-02-16T05:05:09;2.00;99.90
16929;DHT22;8581;47.334;11.190;2024-02-16T05:07:42;2.10;99.90
16929;DHT22;8581;47.334;11.190;2024-02-16T05:10:12;2.10;99.90
16929;DHT22;8581;47.334;11.190;2024-02-16T05:12:44;2.10;99.90
16929;DHT22;8581;47.334;11.190;2024-02-16T05:15:16;2.00;99.90
16929;DHT22;8581;47.334;11.190;2024-02-16T05:17:47;1.90;99.90
16929;DHT22;8581;47.334;11.190;2024-02-16T05:20:20;2.00;99.90
16929;DHT22;8581;47.334;11.190;2024-02-16T05:22:51;2.00;99.90
16929;DHT22;8581;47.334;11.190;2024-02-16T05:25:23;1.90;99.90
16929;DHT22;8581;47.334;11.190;2024-02-16T05:27:55;1.80;99.90
16929;DHT22;8581;47.334;11.190;2024-02-16T05:30:26;1.80;99.90
16929;DHT22;8581;47.334;11.190;2024-02-16T05:32:58;1.90;99.90
16929;DHT22;8581;47.334;11.190;2024-02-16T05:35:30;1.80;99.90
16929;DHT22;8581;47.334;11.190;2024-02-16T05:38:01;1.90;99.90
16929;DHT22;8581;47.334;11.190;2024-02-16T05:40:33;1.90;99.90
16929;DHT22;8581;47.334;11.190;2024-02-16T05:43:05;1.90;99.90
16929;DHT22;8581;47.334;11.190;2024-02-16T05:45:36;1.80;99.90
16929;DHT22;8581;47.334;11.190;2024-02-16T05:48:08;1.80;99.90
16929;DHT22;8581;47.334;11.190;2024-02-16T05:50:39;2.00;99.90
16929;DHT22;8581;47.334;11.190;2024-02-16T05:53:11;2.20;99.90
16929;DHT22;8581;47.334;11.190;2024-02-16T05:55:43;2.10;99.90
16929;DHT22;8581;47.334;11.190;2024-02-16T05:58:14;2.00;99.90
16929;DHT22;8581;47.334;11.190;2024-02-16T06:00:46;1.90;99.90
16929;DHT22;8581;47.334;11.190;2024-02-16T06:03:18;1.90;99.90
16929;DHT22;8581;47.334;11.190;2024-02-16T06:05:49;1.90;99.90
16929;DHT22;8581;47.334;11.190;2024-02-16T06:08:21;1.80;99.90
16929;DHT22;8581;47.334;11.190;2024-02-16T06:10:52;1.90;99.90
16929;DHT22;8581;47.334;11.190;2024-02-16T06:13:24;1.90;99.90
16929;DHT22;8581;47.334;11.190;2024-02-16T06:15:56;1.90;99.90
16929;DHT22;8581;47.334;11.190;2024-02-16T06:18:27;2.00;99.90
16929;DHT22;8581;47.334;11.190;2024-02-16T06:20:59;1.90;99.90
16929;DHT22;8581;47.334;11.190;2024-02-16T06:23:31;1.90;99.90
16929;DHT22;8581;47.334;11.190;2024-02-16T06:26:02;1.90;99.90
16929;DHT22;8581;47.334;11.190;2024-02-16T06:28:34;2.00;99.90
16929;DHT22;8581;47.334;11.190;2024-02-16T06:31:05;2.10;99.90
16929;DHT22;8581;47.334;11.190;2024-02-16T06:33:37;2.10;99.90
16929;DHT22;8581;47.334;11.190;2024-02-16T06:36:09;2.20;99.90
16929;DHT22;8581;47.334;11.190;2024-02-16T06:38:40;2.30;99.90
16929;DHT22;8581;47.334;11.190;2024-02-16T06:41:12;2.40;99.90
16929;DHT22;8581;47.334;11.190;2024-02-16T06:43:44;2.30;99.90
16929;DHT22;8581;47.334;11.190;2024-02-16T06:46:15;2.30;99.90
16929;DHT22;8581;47.334;11.190;2024-02-16T06:48:47;2.40;99.90
16929;DHT22;8581;47.334;11.190;2024-02-16T06:51:18;2.30;99.90
16929;DHT22;8581;47.334;11.190;2024-02-16T06:53:50;2.30;99.90
16929;DHT22;8581;47.334;11.190;2024-02-16T06:56:22;2.30;99.90
16929;DHT22;8581;47.334;11.190;2024-02-16T06:58:53;2.30;99.90
16929;DHT22;8581;47.334;11.190;2024-02-16T07:01:25;2.40;99.90
16929;DHT22;8581;47.334;11.190;2024-02-16T07:03:57;2.60;99.90
16929;DHT22;8581;47.334;11.190;2024-02-16T07:06:28;2.70;99.90
16929;DHT22;8581;47.334;11.190;2024-02-16T07:09:00;2.70;99.90
16929;DHT22;8581;47.334;11.190;2024-02-16T07:11:32;2.60;99.90
16929;DHT22;8581;47.334;11.190;2024-02-16T07:14:03;2.70;99.90
16929;DHT22;8581;47.334;11.190;2024-02-16T07:16:35;2.70;99.90
16929;DHT22;8581;47.334;11.190;2024-02-16T07:19:07;2.60;99.90
16929;DHT22;8581;47.334;11.190;2024-02-16T07:21:38;2.60;99.90
16929;DHT22;8581;47.334;11.190;2024-02-16T07:24:10;2.50;99.90
16929;DHT22;8581;47.334;11.190;2024-02-16T07:26:41;2.60;99.90
16929;DHT22;8581;47.334;11.190;2024-02-16T07:29:13;2.60;99.90
16929;DHT22;8581;47.334;11.190;2024-02-16T07:31:45;2.60;99.90
16929;DHT22;8581;47.334;11.190;2024-02-16T07:34:16;2.60;99.90
16929;DHT22;8581;47.334;11.190;2024-02-16T07:36:48;2.70;99.90
16929;DHT22;8581;47.334;11.190;2024-02-16T07:39:20;2.60;99.90
16929;DHT22;8581;47.334;11.190;2024-02-16T07:41:51;2.90;99.90
16929;DHT22;8581;47.334;11.190;2024-02-16T07:44:23;2.90;99.90
16929;DHT22;8581;47.334;11.190;2024-02-16T07:46:54;3.00;99.90
16929;DHT22;8581;47.334;11.190;2024-02-16T07:49:26;3.00;99.90
16929;DHT22;8581;47.334;11.190;2024-02-16T07:51:58;3.10;99.90
16929;DHT22;8581;47.334;11.190;2024-02-16T07:54:29;3.40;99.90
16929;DHT22;8581;47.334;11.190;2024-02-16T07:57:01;3.70;99.90
16929;DHT22;8581;47.334;11.190;2024-02-16T07:59:33;4.10;99.90
16929;DHT22;8581;47.334;11.190;2024-02-16T08:02:04;4.40;99.90
16929;DHT22;8581;47.334;11.190;2024-02-16T08:04:36;4.80;99.90
16929;DHT22;8581;47.334;11.190;2024-02-16T08:07:08;5.20;99.90
16929;DHT22;8581;47.334;11.190;2024-02-16T08:09:39;5.50;99.90
16929;DHT22;8581;47.334;11.190;2024-02-16T08:12:11;5.80;99.90
16929;DHT22;8581;47.334;11.190;2024-02-16T08:14:43;6.00;99.90
16929;DHT22;8581;47.334;11.190;2024-02-16T08:17:14;6.60;99.90
16929;DHT22;8581;47.334;11.190;2024-02-16T08:19:51;6.70;99.90
16929;DHT22;8581;47.334;11.190;2024-02-16T08:22:17;7.00;99.90
16929;DHT22;8581;47.334;11.190;2024-02-16T08:24:49;7.50;99.90
16929;DHT22;8581;47.334;11.190;2024-02-16T08:27:21;7.90;99.90
16929;DHT22;8581;47.334;11.190;2024-02-16T08:29:52;8.30;99.90
16929;DHT22;8581;47.334;11.190;2024-02-16T08:32:24;8.80;99.90
16929;DHT22;8581;47.334;11.190;2024-02-16T08:34:55;9.10;99.90
16929;DHT22;8581;47.334;11.190;2024-02-16T08:37:27;9.40;99.90
16929;DHT22;8581;47.334;11.190;2024-02-16T08:39:59;9.50;99.90
16929;DHT22;8581;47.334;11.190;2024-02-16T08:42:30;10.00;99.90
16929;DHT22;8581;47.334;11.190;2024-02-16T08:45:03;10.50;99.90
16929;DHT22;8581;47.334;11.190;2024-02-16T08:47:34;10.60;99.90
16929;DHT22;8581;47.334;11.190;2024-02-16T08:50:07;11.30;99.90
16929;DHT22;8581;47.334;11.190;2024-02-16T08:52:38;11.20;99.90
16929;DHT22;8581;47.334;11.190;2024-02-16T08:55:10;11.50;99.90
16929;DHT22;8581;47.334;11.190;2024-02-16T08:57:42;12.00;99.90
16929;DHT22;8581;47.334;11.190;2024-02-16T09:00:14;12.00;99.90
16929;DHT22;8581;47.334;11.190;2024-02-16T09:02:46;12.10;99.90
16929;DHT22;8581;47.334;11.190;2024-02-16T09:05:18;12.10;99.90
16929;DHT22;8581;47.334;11.190;2024-02-16T09:07:50;12.30;99.90
16929;DHT22;8581;47.334;11.190;2024-02-16T09:10:22;12.60;99.90
16929;DHT22;8581;47.334;11.190;2024-02-16T09:12:53;12.80;99.90
16929;DHT22;8581;47.334;11.190;2024-02-16T09:15:25;12.90;99.90
16929;DHT22;8581;47.334;11.190;2024-02-16T09:17:56;13.20;99.90
16929;DHT22;8581;47.334;11.190;2024-02-16T09:20:28;13.50;99.90
16929;DHT22;8581;47.334;11.190;2024-02-16T09:23:00;13.50;99.90
16929;DHT22;8581;47.334;11.190;2024-02-16T09:25:31;13.60;99.90
16929;DHT22;8581;47.334;11.190;2024-02-16T09:28:04;13.70;98.00
16929;DHT22;8581;47.334;11.190;2024-02-16T09:30:36;13.80;97.80
16929;DHT22;8581;47.334;11.190;2024-02-16T09:33:07;14.00;97.20
16929;DHT22;8581;47.334;11.190;2024-02-16T09:35:38;14.40;98.90
16929;DHT22;8581;47.334;11.190;2024-02-16T09:38:10;14.80;95.80
16929;DHT22;8581;47.334;11.190;2024-02-16T09:40:42;14.70;96.00
16929;DHT22;8581;47.334;11.190;2024-02-16T09:43:29;15.50;97.40
16929;DHT22;8581;47.334;11.190;2024-02-16T09:46:01;15.60;95.50
16929;DHT22;8581;47.334;11.190;2024-02-16T09:48:32;15.50;93.10
16929;DHT22;8581;47.334;11.190;2024-02-16T09:51:04;15.50;92.40
16929;DHT22;8581;47.334;11.190;2024-02-16T09:53:36;15.50;93.30
16929;DHT22;8581;47.334;11.190;2024-02-16T09:56:08;15.70;93.20
16929;DHT22;8581;47.334;11.190;2024-02-16T09:58:40;15.80;93.20
16929;DHT22;8581;47.334;11.190;2024-02-16T10:01:17;15.90;90.30
16929;DHT22;8581;47.334;11.190;2024-02-16T10:03:43;15.90;92.00
16929;DHT22;8581;47.334;11.190;2024-02-16T10:06:15;16.00;91.70
16929;DHT22;8581;47.334;11.190;2024-02-16T10:08:47;15.90;91.00
16929;DHT22;8581;47.334;11.190;2024-02-16T10:11:20;16.30;91.60
16929;DHT22;8581;47.334;11.190;2024-02-16T10:13:56;16.20;91.60
16929;DHT22;8581;47.334;11.190;2024-02-16T10:16:28;16.40;88.70
16929;DHT22;8581;47.334;11.190;2024-02-16T10:19:05;16.40;89.40
16929;DHT22;8581;47.334;11.190;2024-02-16T10:21:36;16.50;89.70
16929;DHT22;8581;47.334;11.190;2024-02-16T10:24:09;16.50;89.10
16929;DHT22;8581;47.334;11.190;2024-02-16T10:26:41;16.80;90.20
16929;DHT22;8581;47.334;11.190;2024-02-16T10:29:14;17.50;88.90
16929;DHT22;8581;47.334;11.190;2024-02-16T10:31:44;18.10;85.20
16929;DHT22;8581;47.334;11.190;2024-02-16T10:34:16;17.90;84.80
16929;DHT22;8581;47.334;11.190;2024-02-16T10:36:47;18.20;85.00
16929;DHT22;8581;47.334;11.190;2024-02-16T10:39:19;18.30;85.10
16929;DHT22;8581;47.334;11.190;2024-02-16T10:41:51;18.30;84.00
16929;DHT22;8581;47.334;11.190;2024-02-16T10:44:22;18.70;83.50
16929;DHT22;8581;47.334;11.190;2024-02-16T10:46:55;18.90;82.60
16929;DHT22;8581;47.334;11.190;2024-02-16T10:49:27;19.20;83.10
16929;DHT22;8581;47.334;11.190;2024-02-16T10:51:58;19.10;81.30
16929;DHT22;8581;47.334;11.190;2024-02-16T10:54:31;19.00;80.10
16929;DHT22;8581;47.334;11.190;2024-02-16T10:57:07;19.10;81.90
16929;DHT22;8581;47.334;11.190;2024-02-16T10:59:44;19.00;80.70
16929;DHT22;8581;47.334;11.190;2024-02-16T11:02:17;19.30;81.60
16929;DHT22;8581;47.334;11.190;2024-02-16T11:04:48;19.20;80.20
16929;DHT22;8581;47.334;11.190;2024-02-16T11:07:20;19.40;78.60
16929;DHT22;8581;47.334;11.190;2024-02-16T11:09:52;19.80;77.50
16929;DHT22;8581;47.334;11.190;2024-02-16T11:12:23;20.10;78.20
16929;DHT22;8581;47.334;11.190;2024-02-16T11:14:56;20.40;76.60
16929;DHT22;8581;47.334;11.190;2024-02-16T11:17:27;20.30;75.20
16929;DHT22;8581;47.334;11.190;2024-02-16T11:19:59;20.40;74.30
16929;DHT22;8581;47.334;11.190;2024-02-16T11:22:30;20.40;74.40
16929;DHT22;8581;47.334;11.190;2024-02-16T11:25:04;20.30;74.20
16929;DHT22;8581;47.334;11.190;2024-02-16T11:27:33;20.60;74.10
16929;DHT22;8581;47.334;11.190;2024-02-16T11:30:06;20.70;72.90
16929;DHT22;8581;47.334;11.190;2024-02-16T11:32:38;21.30;72.90
16929;DHT22;8581;47.334;11.190;2024-02-16T11:35:09;21.80;71.20
16929;DHT22;8581;47.334;11.190;2024-02-16T11:37:41;22.30;70.00
16929;DHT22;8581;47.334;11.190;2024-02-16T11:40:13;22.10;71.50
16929;DHT22;8581;47.334;11.190;2024-02-16T11:42:44;22.40;70.30
16929;DHT22;8581;47.334;11.190;2024-02-16T11:45:16;22.80;71.70
16929;DHT22;8581;47.334;11.190;2024-02-16T11:47:48;23.70;71.80
16929;DHT22;8581;47.334;11.190;2024-02-16T11:50:20;24.20;69.70
16929;DHT22;8581;47.334;11.190;2024-02-16T11:52:51;24.50;66.60
16929;DHT22;8581;47.334;11.190;2024-02-16T11:55:23;24.70;64.60
16929;DHT22;8581;47.334;11.190;2024-02-16T11:57:55;25.00;63.40
16929;DHT22;8581;47.334;11.190;2024-02-16T12:00:26;25.50;64.40
16929;DHT22;8581;47.334;11.190;2024-02-16T12:03:00;25.80;61.70
16929;DHT22;8581;47.334;11.190;2024-02-16T12:05:31;25.90;63.80
16929;DHT22;8581;47.334;11.190;2024-02-16T12:08:05;26.80;59.40
16929;DHT22;8581;47.334;11.190;2024-02-16T12:10:36;26.60;61.10
16929;DHT22;8581;47.334;11.190;2024-02-16T12:13:08;27.60;60.50
16929;DHT22;8581;47.334;11.190;2024-02-16T12:15:40;28.40;58.00
16929;DHT22;8581;47.334;11.190;2024-02-16T12:18:18;28.20;58.70
16929;DHT22;8581;47.334;11.190;2024-02-16T12:20:43;28.30;58.90
16929;DHT22;8581;47.334;11.190;2024-02-16T12:23:15;28.10;58.50
16929;DHT22;8581;47.334;11.190;2024-02-16T12:25:46;27.70;58.70
16929;DHT22;8581;47.334;11.190;2024-02-16T12:28:18;29.00;56.60
16929;DHT22;8581;47.334;11.190;2024-02-16T12:30:50;30.20;56.30
16929;DHT22;8581;47.334;11.190;2024-02-16T12:33:24;29.60;55.00
16929;DHT22;8581;47.334;11.190;2024-02-16T12:35:56;29.80;56.20
16929;DHT22;8581;47.334;11.190;2024-02-16T12:38:27;30.70;55.30
16929;DHT22;8581;47.334;11.190;2024-02-16T12:40:59;30.10;55.70
16929;DHT22;8581;47.334;11.190;2024-02-16T12:43:31;30.60;55.70
16929;DHT22;8581;47.334;11.190;2024-02-16T12:46:02;30.20;55.10
16929;DHT22;8581;47.334;11.190;2024-02-16T12:48:34;31.10;54.40
16929;DHT22;8581;47.334;11.190;2024-02-16T12:51:05;33.00;52.90
16929;DHT22;8581;47.334;11.190;2024-02-16T12:53:37;32.80;53.10
16929;DHT22;8581;47.334;11.190;2024-02-16T12:56:09;31.80;52.40
16929;DHT22;8581;47.334;11.190;2024-02-16T12:58:40;30.60;52.30
16929;DHT22;8581;47.334;11.190;2024-02-16T13:01:12;28.80;54.60
16929;DHT22;8581;47.334;11.190;2024-02-16T13:03:44;26.90;56.20
16929;DHT22;8581;47.334;11.190;2024-02-16T13:06:15;25.40;58.30
16929;DHT22;8581;47.334;11.190;2024-02-16T13:08:47;24.40;58.70
16929;DHT22;8581;47.334;11.190;2024-02-16T13:11:19;23.80;60.20
16929;DHT22;8581;47.334;11.190;2024-02-16T13:13:50;23.70;60.20
16929;DHT22;8581;47.334;11.190;2024-02-16T13:16:22;22.70;62.00
16929;DHT22;8581;47.334;11.190;2024-02-16T13:18:54;22.60;62.80
16929;DHT22;8581;47.334;11.190;2024-02-16T13:21:25;22.10;63.60
16929;DHT22;8581;47.334;11.190;2024-02-16T13:23:57;21.80;64.30
16929;DHT22;8581;47.334;11.190;2024-02-16T13:26:29;21.90;63.60
16929;DHT22;8581;47.334;11.190;2024-02-16T13:29:00;22.10;63.90
16929;DHT22;8581;47.334;11.190;2024-02-16T13:31:32;22.20;63.70
16929;DHT22;8581;47.334;11.190;2024-02-16T13:34:03;22.20;64.40
16929;DHT22;8581;47.334;11.190;2024-02-16T13:36:35;22.30;64.30
16929;DHT22;8581;47.334;11.190;2024-02-16T13:39:07;22.70;64.10
16929;DHT22;8581;47.334;11.190;2024-02-16T13:41:38;23.40;62.00
16929;DHT22;8581;47.334;11.190;2024-02-16T13:44:10;23.30;62.20
16929;DHT22;8581;47.334;11.190;2024-02-16T13:46:42;22.80;62.90
16929;DHT22;8581;47.334;11.190;2024-02-16T13:49:13;23.00;62.20
16929;DHT22;8581;47.334;11.190;2024-02-16T13:51:45;22.00;64.30
16929;DHT22;8581;47.334;11.190;2024-02-16T13:54:17;21.50;65.20
16929;DHT22;8581;47.334;11.190;2024-02-16T13:56:49;22.60;64.70
16929;DHT22;8581;47.334;11.190;2024-02-16T13:59:20;22.80;63.60
16929;DHT22;8581;47.334;11.190;2024-02-16T14:01:52;23.40;62.20
16929;DHT22;8581;47.334;11.190;2024-02-16T14:04:24;24.20;62.00
16929;DHT22;8581;47.334;11.190;2024-02-16T14:06:55;24.10;60.80
16929;DHT22;8581;47.334;11.190;2024-02-16T14:09:27;24.50;60.90
16929;DHT22;8581;47.334;11.190;2024-02-16T14:12:05;24.20;61.70
16929;DHT22;8581;47.334;11.190;2024-02-16T14:14:37;25.00;61.30
16929;DHT22;8581;47.334;11.190;2024-02-16T14:17:09;24.70;59.90
16929;DHT22;8581;47.334;11.190;2024-02-16T14:19:40;24.10;61.40
16929;DHT22;8581;47.334;11.190;2024-02-16T14:22:12;22.80;62.50
16929;DHT22;8581;47.334;11.190;2024-02-16T14:24:44;21.70;65.00
16929;DHT22;8581;47.334;11.190;2024-02-16T14:27:15;21.40;66.50
16929;DHT22;8581;47.334;11.190;2024-02-16T14:29:47;20.80;66.50
16929;DHT22;8581;47.334;11.190;2024-02-16T14:32:20;20.40;68.00
16929;DHT22;8581;47.334;11.190;2024-02-16T14:34:50;19.50;70.70
16929;DHT22;8581;47.334;11.190;2024-02-16T14:37:22;19.00;72.00
16929;DHT22;8581;47.334;11.190;2024-02-16T14:39:54;18.90;74.40
16929;DHT22;8581;47.334;11.190;2024-02-16T14:42:26;18.50;74.90
16929;DHT22;8581;47.334;11.190;2024-02-16T14:44:57;18.00;76.00
16929;DHT22;8581;47.334;11.190;2024-02-16T14:47:28;17.50;77.10
16929;DHT22;8581;47.334;11.190;2024-02-16T14:50:00;17.20;78.70
16929;DHT22;8581;47.334;11.190;2024-02-16T14:52:32;17.10;78.90
16929;DHT22;8581;47.334;11.190;2024-02-16T14:55:04;16.90;80.00
16929;DHT22;8581;47.334;11.190;2024-02-16T14:57:37;16.80;82.20
16929;DHT22;8581;47.334;11.190;2024-02-16T15:00:10;16.70;82.70
16929;DHT22;8581;47.334;11.190;2024-02-16T15:02:42;16.40;83.10
16929;DHT22;8581;47.334;11.190;2024-02-16T15:05:14;16.30;83.30
16929;DHT22;8581;47.334;11.190;2024-02-16T15:07:45;16.30;84.20
16929;DHT22;8581;47.334;11.190;2024-02-16T15:10:17;16.30;84.40
16929;DHT22;8581;47.334;11.190;2024-02-16T15:12:49;16.30;84.70
16929;DHT22;8581;47.334;11.190;2024-02-16T15:15:20;16.20;84.80
16929;DHT22;8581;47.334;11.190;2024-02-16T15:17:52;16.30;86.10
16929;DHT22;8581;47.334;11.190;2024-02-16T15:20:23;16.10;85.50
16929;DHT22;8581;47.334;11.190;2024-02-16T15:22:55;16.30;86.10
16929;DHT22;8581;47.334;11.190;2024-02-16T15:25:27;16.10;82.10
16929;DHT22;8581;47.334;11.190;2024-02-16T15:27:58;15.90;83.70
16929;DHT22;8581;47.334;11.190;2024-02-16T15:30:30;15.70;84.60
16929;DHT22;8581;47.334;11.190;2024-02-16T15:33:02;15.60;84.20
16929;DHT22;8581;47.334;11.190;2024-02-16T15:35:33;15.30;85.10
16929;DHT22;8581;47.334;11.190;2024-02-16T15:38:05;15.50;84.50
16929;DHT22;8581;47.334;11.190;2024-02-16T15:40:37;15.40;85.00
16929;DHT22;8581;47.334;11.190;2024-02-16T15:43:08;15.20;84.80
16929;DHT22;8581;47.334;11.190;2024-02-16T15:45:40;15.00;87.20
16929;DHT22;8581;47.334;11.190;2024-02-16T15:48:12;14.80;87.10
16929;DHT22;8581;47.334;11.190;2024-02-16T15:50:43;14.60;88.70
16929;DHT22;8581;47.334;11.190;2024-02-16T15:53:20;14.20;92.10
16929;DHT22;8581;47.334;11.190;2024-02-16T15:55:52;13.90;93.40
16929;DHT22;8581;47.334;11.190;2024-02-16T15:58:23;14.00;93.70
16929;DHT22;8581;47.334;11.190;2024-02-16T16:00:55;14.00;94.00
16929;DHT22;8581;47.334;11.190;2024-02-16T16:03:27;14.00;94.70
16929;DHT22;8581;47.334;11.190;2024-02-16T16:05:58;13.90;94.60
16929;DHT22;8581;47.334;11.190;2024-02-16T16:08:30;13.70;94.70